Time,TemperatureF,DewpointF,PressureIn,WindDirection,WindDirectionDegrees,WindSpeedMPH,WindSpeedGustMPH,Humidity,HourlyPrecipIn,Conditions,Clouds,dailyrainin,SoftwareType,DateUTC
2013-09-26 00:04:00,47.7,46.8,30.00,ENE,68,0.0,0.0,97,0.00,,,0.00,VWS V14.01,2013-09-26 05:04:00,
2013-09-26 00:14:00,47.5,46.7,30.00,ENE,68,0.0,0.0,97,0.00,,,0.00,VWS V14.01,2013-09-26 05:14:00,
2013-09-26 00:19:00,47.5,46.7,30.00,ENE,68,0.0,0.0,97,0.00,,,0.00,VWS V14.01,2013-09-26 05:19:00,
2013-09-26 00:29:00,47.3,46.5,30.00,ENE,68,0.0,0.0,97,0.00,,,0.00,VWS V14.01,2013-09-26 05:29:00,
2013-09-26 00:40:00,47.1,46.3,30.00,ENE,68,0.0,0.0,97,0.00,,,0.00,VWS V14.01,2013-09-26 05:40:00,
2013-09-26 00:49:00,46.8,45.7,30.00,ENE,68,0.0,0.0,96,0.00,,,0.00,VWS V14.01,2013-09-26 05:49:00,
2013-09-26 00:54:00,46.6,45.5,30.00,ENE,68,0.0,0.0,96,0.00,,,0.00,VWS V14.01,2013-09-26 05:54:00,
2013-09-26 01:04:00,46.4,45.3,30.00,ENE,68,0.0,0.0,96,0.00,,,0.00,VWS V14.01,2013-09-26 06:04:00,
2013-09-26 01:09:00,46.2,45.4,30.00,ENE,68,0.0,0.0,97,0.00,,,0.00,VWS V14.01,2013-09-26 06:09:00,
2013-09-26 01:14:00,46.2,45.4,30.00,ENE,68,0.0,0.0,97,0.00,,,0.00,VWS V14.01,2013-09-26 06:14:00,
2013-09-26 01:24:00,46.0,45.2,30.00,ENE,68,0.0,0.0,97,0.00,,,0.00,VWS V14.01,2013-09-26 06:24:00,
2013-09-26 01:29:00,45.9,45.1,30.00,ENE,68,0.0,0.0,97,0.00,,,0.00,VWS V14.01,2013-09-26 06:29:00,
2013-09-26 01:39:00,45.5,44.7,30.00,ENE,68,0.0,0.0,97,0.00,,,0.00,VWS V14.01,2013-09-26 06:39:00,
2013-09-26 01:49:00,45.3,44.5,30.00,ENE,68,0.0,0.0,97,0.00,,,0.00,VWS V14.01,2013-09-26 06:49:00,
2013-09-26 01:59:00,45.0,44.2,30.00,ENE,68,0.0,0.0,97,0.00,,,0.00,VWS V14.01,2013-09-26 06:59:00,
2013-09-26 02:04:00,44.8,44.0,30.00,ENE,68,0.0,0.0,97,0.00,,,0.00,VWS V14.01,2013-09-26 07:04:00,
2013-09-26 02:14:00,44.8,44.0,30.00,ENE,68,0.0,0.0,97,0.00,,,0.00,VWS V14.01,2013-09-26 07:14:00,
2013-09-26 02:24:00,44.4,43.6,30.00,ENE,68,0.0,0.0,97,0.00,,,0.00,VWS V14.01,2013-09-26 07:24:00,
2013-09-26 02:34:00,44.2,43.4,30.00,ENE,68,0.0,0.0,97,0.00,,,0.00,VWS V14.01,2013-09-26 07:34:00,
2013-09-26 02:39:00,44.1,43.3,30.00,ENE,68,0.0,0.0,97,0.00,,,0.00,VWS V14.01,2013-09-26 07:39:00,
2013-09-26 02:45:00,44.1,43.3,30.00,ENE,68,0.0,0.0,97,0.00,,,0.00,VWS V14.01,2013-09-26 07:45:00,
2013-09-26 02:54:00,44.1,43.3,30.00,ENE,68,0.0,0.0,97,0.00,,,0.00,VWS V14.01,2013-09-26 07:54:00,
2013-09-26 02:59:00,44.1,43.5,30.00,ENE,68,0.0,0.0,98,0.00,,,0.00,VWS V14.01,2013-09-26 07:59:00,
2013-09-26 03:09:00,44.2,43.7,30.00,ENE,68,0.0,0.0,98,0.00,,,0.00,VWS V14.01,2013-09-26 08:09:00,
2013-09-26 03:14:00,44.6,43.8,30.00,ENE,68,0.0,0.0,97,0.00,,,0.00,VWS V14.01,2013-09-26 08:14:00,
2013-09-26 03:24:00,44.8,44.2,30.00,ENE,68,0.0,0.0,98,0.00,,,0.00,VWS V14.01,2013-09-26 08:24:00,
2013-09-26 03:34:00,45.5,45.0,30.00,ENE,68,0.0,0.0,98,0.00,,,0.00,VWS V14.01,2013-09-26 08:34:00,
2013-09-26 03:44:00,46.0,45.5,30.00,ENE,68,0.0,0.0,98,0.00,,,0.00,VWS V14.01,2013-09-26 08:44:00,
2013-09-26 03:49:00,46.2,45.7,30.00,ENE,68,0.0,0.0,98,0.00,,,0.00,VWS V14.01,2013-09-26 08:49:00,
2013-09-26 03:59:00,46.9,46.4,30.00,ENE,68,0.0,0.0,98,0.00,,,0.00,VWS V14.01,2013-09-26 08:59:00,
2013-09-26 04:09:00,47.3,46.8,30.00,ENE,68,0.0,0.0,98,0.00,,,0.00,VWS V14.01,2013-09-26 09:09:00,
2013-09-26 04:19:00,47.7,47.1,30.00,ENE,68,0.0,0.0,98,0.00,,,0.00,VWS V14.01,2013-09-26 09:19:00,
2013-09-26 04:24:00,48.0,47.5,30.00,ENE,68,0.0,0.0,98,0.00,,,0.00,VWS V14.01,2013-09-26 09:24:00,
2013-09-26 04:29:00,48.2,47.7,30.00,ENE,68,0.0,0.0,98,0.00,,,0.00,VWS V14.01,2013-09-26 09:29:00,
2013-09-26 04:39:00,48.7,48.2,30.00,ENE,68,0.0,0.0,98,0.00,,,0.00,VWS V14.01,2013-09-26 09:39:00,
2013-09-26 04:49:00,49.8,49.3,30.00,NW,315,0.0,2.5,98,0.00,,,0.00,VWS V14.01,2013-09-26 09:49:00,
2013-09-26 04:55:00,50.2,49.6,30.00,East,90,0.0,2.0,98,0.00,,,0.00,VWS V14.01,2013-09-26 09:55:00,
2013-09-26 05:04:00,50.4,49.8,30.00,SW,225,1.6,1.6,98,0.00,,,0.00,VWS V14.01,2013-09-26 10:04:00,
2013-09-26 05:09:00,50.5,50.0,30.00,ENE,68,1.1,1.6,98,0.00,,,0.00,VWS V14.01,2013-09-26 10:09:00,
2013-09-26 05:19:00,50.7,50.2,30.00,NE,45,0.9,3.1,98,0.00,,,0.00,VWS V14.01,2013-09-26 10:19:00,
2013-09-26 05:29:00,50.7,50.2,30.00,ENE,68,1.3,2.0,98,0.00,,,0.00,VWS V14.01,2013-09-26 10:29:00,
2013-09-26 05:39:00,51.1,50.5,30.03,NE,45,1.1,2.5,98,0.00,,,0.00,VWS V14.01,2013-09-26 10:39:00,
2013-09-26 05:44:00,51.1,50.5,30.03,ENE,68,0.0,3.1,98,0.00,,,0.00,VWS V14.01,2013-09-26 10:44:00,
2013-09-26 05:49:00,51.1,50.5,30.00,ENE,68,0.0,1.6,98,0.00,,,0.00,VWS V14.01,2013-09-26 10:49:00,
2013-09-26 05:59:00,50.7,50.2,30.00,NNE,22,0.9,1.3,98,0.00,,,0.00,VWS V14.01,2013-09-26 10:59:00,
2013-09-26 06:09:00,50.4,49.8,30.00,ENE,68,0.0,1.1,98,0.00,,,0.00,VWS V14.01,2013-09-26 11:09:00,
2013-09-26 06:19:00,50.2,49.6,30.00,NE,45,1.6,1.6,98,0.00,,,0.00,VWS V14.01,2013-09-26 11:19:00,
2013-09-26 06:29:00,50.5,50.0,30.00,ENE,68,1.6,1.6,98,0.00,,,0.00,VWS V14.01,2013-09-26 11:29:00,
2013-09-26 06:39:00,50.9,50.4,30.03,NE,45,1.6,3.1,98,0.00,,,0.00,VWS V14.01,2013-09-26 11:39:00,
2013-09-26 06:44:00,50.9,50.4,30.03,ENE,68,2.0,2.9,98,0.00,,,0.00,VWS V14.01,2013-09-26 11:44:00,
2013-09-26 06:54:00,50.7,50.2,30.03,NE,45,0.0,1.3,98,0.00,,,0.00,VWS V14.01,2013-09-26 11:54:00,
2013-09-26 07:04:00,50.7,50.2,30.03,ENE,68,2.0,2.7,98,0.00,,,0.00,VWS V14.01,2013-09-26 12:04:00,
2013-09-26 07:14:00,50.9,50.4,30.03,NNE,22,2.5,3.8,98,0.00,,,0.00,VWS V14.01,2013-09-26 12:14:00,
2013-09-26 07:24:00,51.1,50.5,30.03,NNE,22,2.5,3.4,98,0.00,,,0.00,VWS V14.01,2013-09-26 12:24:00,
2013-09-26 07:29:00,51.1,50.5,30.03,NE,45,0.0,2.9,98,0.00,,,0.00,VWS V14.01,2013-09-26 12:29:00,
2013-09-26 07:39:00,51.3,50.7,30.03,ENE,68,2.5,2.5,98,0.00,,,0.00,VWS V14.01,2013-09-26 12:39:00,
2013-09-26 07:49:00,51.6,50.8,30.03,NE,45,1.6,3.4,97,0.00,,,0.00,VWS V14.01,2013-09-26 12:49:00,
2013-09-26 07:54:00,51.8,51.0,30.03,ENE,68,2.0,3.4,97,0.00,,,0.00,VWS V14.01,2013-09-26 12:54:00,
2013-09-26 08:04:00,52.2,51.1,30.03,ENE,68,3.1,3.8,96,0.00,,,0.00,VWS V14.01,2013-09-26 13:04:00,
2013-09-26 08:14:00,52.5,51.4,30.03,North,0,1.1,4.0,96,0.00,,,0.00,VWS V14.01,2013-09-26 13:14:00,
2013-09-26 08:24:00,53.2,51.8,30.03,East,90,3.4,4.3,95,0.00,,,0.00,VWS V14.01,2013-09-26 13:24:00,
2013-09-26 08:29:00,53.4,52.0,30.03,SW,225,2.2,4.9,95,0.00,,,0.00,VWS V14.01,2013-09-26 13:29:00,
2013-09-26 08:39:00,54.3,52.6,30.03,ENE,68,2.9,3.8,94,0.00,,,0.00,VWS V14.01,2013-09-26 13:39:00,
2013-09-26 08:49:00,55.8,53.5,30.03,NE,45,1.3,3.4,92,0.00,,,0.00,VWS V14.01,2013-09-26 13:49:00,
2013-09-26 08:59:00,56.7,53.5,30.03,NE,45,2.9,3.8,89,0.00,,,0.00,VWS V14.01,2013-09-26 13:59:00,
2013-09-26 09:04:00,57.0,53.5,30.03,NNE,22,0.9,4.3,88,0.00,,,0.00,VWS V14.01,2013-09-26 14:04:00,
2013-09-26 09:15:00,57.7,53.9,30.03,ESE,112,2.2,4.3,87,0.00,,,0.00,VWS V14.01,2013-09-26 14:15:00,
2013-09-26 09:24:00,58.8,54.3,30.03,ENE,68,4.0,4.9,85,0.00,,,0.00,VWS V14.01,2013-09-26 14:24:00,
2013-09-26 09:29:00,59.2,54.4,30.03,ENE,68,2.7,4.3,84,0.00,,,0.00,VWS V14.01,2013-09-26 14:29:00,
2013-09-26 09:39:00,60.1,54.2,30.06,ESE,112,2.0,5.6,81,0.00,,,0.00,VWS V14.01,2013-09-26 14:39:00,
2013-09-26 09:44:00,60.4,54.6,30.06,ESE,112,3.4,4.0,81,0.00,,,0.00,VWS V14.01,2013-09-26 14:44:00,
2013-09-26 09:50:00,60.6,54.1,30.06,NE,45,2.7,229.1,79,0.00,,,0.00,VWS V14.01,2013-09-26 14:50:00,
2013-09-26 09:59:00,61.3,54.8,30.06,ENE,68,2.5,3.8,79,0.00,,,0.00,VWS V14.01,2013-09-26 14:59:00,
2013-09-26 10:04:00,61.5,53.9,30.03,NE,45,2.5,5.6,76,0.00,,,0.00,VWS V14.01,2013-09-26 15:04:00,
2013-09-26 10:09:00,61.7,54.1,30.03,ENE,68,7.2,7.2,76,0.00,,,0.00,VWS V14.01,2013-09-26 15:09:00,
2013-09-26 10:19:00,62.4,54.0,30.03,ENE,68,0.0,6.5,74,0.00,,,0.00,VWS V14.01,2013-09-26 15:19:00,
2013-09-26 10:24:00,63.1,54.3,30.03,NNW,338,2.2,4.9,73,0.00,,,0.00,VWS V14.01,2013-09-26 15:24:00,
2013-09-26 10:29:00,63.5,54.3,30.03,ENE,68,3.4,5.8,72,0.00,,,0.00,VWS V14.01,2013-09-26 15:29:00,
2013-09-26 10:34:00,63.9,54.7,30.03,SE,135,3.8,3.8,72,0.00,,,0.00,VWS V14.01,2013-09-26 15:34:00,
2013-09-26 10:39:00,64.2,54.6,30.03,ENE,68,5.4,5.4,71,0.00,,,0.00,VWS V14.01,2013-09-26 15:39:00,
2013-09-26 10:49:00,64.8,54.0,30.03,NE,45,3.1,10.1,68,0.00,,,0.00,VWS V14.01,2013-09-26 15:49:00,
2013-09-26 10:59:00,66.0,56.0,30.03,East,90,2.7,4.0,70,0.00,,,0.00,VWS V14.01,2013-09-26 15:59:00,
2013-09-26 11:04:00,66.4,55.5,30.03,East,90,2.7,4.9,68,0.00,,,0.00,VWS V14.01,2013-09-26 16:04:00,
2013-09-26 11:09:00,66.6,55.7,30.03,ENE,68,0.9,2.9,68,0.00,,,0.00,VWS V14.01,2013-09-26 16:09:00,
2013-09-26 11:14:00,67.1,55.8,30.03,ENE,68,3.6,5.6,67,0.00,,,0.00,VWS V14.01,2013-09-26 16:14:00,
2013-09-26 11:19:00,67.3,55.5,30.03,NE,45,2.2,5.8,66,0.00,,,0.00,VWS V14.01,2013-09-26 16:19:00,
2013-09-26 11:24:00,67.5,55.3,30.03,NE,45,4.9,6.3,65,0.00,,,0.00,VWS V14.01,2013-09-26 16:24:00,
2013-09-26 11:29:00,67.5,55.7,30.03,NE,45,3.6,5.4,66,0.00,,,0.00,VWS V14.01,2013-09-26 16:29:00,
2013-09-26 11:34:00,68.0,55.4,30.03,ESE,112,3.6,7.4,64,0.00,,,0.00,VWS V14.01,2013-09-26 16:34:00,
2013-09-26 11:44:00,68.5,54.6,30.03,NE,45,4.0,4.9,61,0.00,,,0.00,VWS V14.01,2013-09-26 16:44:00,
2013-09-26 11:49:00,68.7,55.2,30.03,ENE,68,3.6,7.4,62,0.00,,,0.00,VWS V14.01,2013-09-26 16:49:00,
2013-09-26 11:59:00,69.6,55.1,30.03,ESE,112,2.9,6.3,60,0.00,,,0.00,VWS V14.01,2013-09-26 16:59:00,
2013-09-26 12:19:00,70.2,54.2,30.03,NE,45,3.1,5.8,57,0.00,,,0.00,VWS V14.01,2013-09-26 17:19:00,
2013-09-26 12:24:00,70.3,54.9,30.03,SE,135,3.8,6.0,58,0.00,,,0.00,VWS V14.01,2013-09-26 17:24:00,
2013-09-26 12:34:00,71.2,54.8,30.03,NNE,22,4.3,6.5,56,0.00,,,0.00,VWS V14.01,2013-09-26 17:34:00,
2013-09-26 12:44:00,71.6,55.1,30.03,SSW,202,4.7,4.7,56,0.00,,,0.00,VWS V14.01,2013-09-26 17:44:00,
2013-09-26 12:54:00,72.3,54.8,30.03,SE,135,4.3,5.6,54,0.00,,,0.00,VWS V14.01,2013-09-26 17:54:00,
2013-09-26 12:59:00,72.5,54.9,30.03,East,90,1.6,6.5,54,0.00,,,0.00,VWS V14.01,2013-09-26 17:59:00,
2013-09-26 13:09:00,72.5,55.4,30.00,East,90,3.1,8.7,55,0.00,,,0.00,VWS V14.01,2013-09-26 18:09:00,
2013-09-26 13:19:00,73.4,55.2,30.00,NNW,338,2.0,5.4,53,0.00,,,0.00,VWS V14.01,2013-09-26 18:19:00,
2013-09-26 13:24:00,73.6,55.4,30.00,NE,45,2.0,6.3,53,0.00,,,0.00,VWS V14.01,2013-09-26 18:24:00,
2013-09-26 13:29:00,73.8,55.1,30.00,NNE,22,1.1,6.3,52,0.00,,,0.00,VWS V14.01,2013-09-26 18:29:00,
2013-09-26 13:34:00,73.8,55.1,30.00,ENE,68,6.3,6.3,52,0.00,,,0.00,VWS V14.01,2013-09-26 18:34:00,
2013-09-26 13:39:00,73.8,55.6,30.00,NNW,338,3.1,6.3,53,0.00,,,0.00,VWS V14.01,2013-09-26 18:39:00,
2013-09-26 13:44:00,73.9,55.2,30.00,East,90,5.4,8.5,52,0.00,,,0.00,VWS V14.01,2013-09-26 18:44:00,
2013-09-26 13:54:00,74.3,56.1,29.97,NW,315,2.5,4.3,53,0.00,,,0.00,VWS V14.01,2013-09-26 18:54:00,
2013-09-26 14:04:00,75.0,55.7,30.00,SSE,158,6.5,6.5,51,0.00,,,0.00,VWS V14.01,2013-09-26 19:04:00,
2013-09-26 14:09:00,75.0,55.7,30.00,SW,225,2.7,6.5,51,0.00,,,0.00,VWS V14.01,2013-09-26 19:09:00,
2013-09-26 14:19:00,75.0,56.2,30.00,SE,135,5.6,10.3,52,0.00,,,0.00,VWS V14.01,2013-09-26 19:19:00,
2013-09-26 14:25:00,75.0,55.7,30.00,ESE,112,3.4,10.1,51,0.00,,,0.00,VWS V14.01,2013-09-26 19:25:00,
2013-09-26 14:34:00,75.7,56.9,30.00,ESE,112,2.7,7.8,52,0.00,,,0.00,VWS V14.01,2013-09-26 19:34:00,
2013-09-26 14:39:00,76.5,57.5,30.00,NE,45,3.8,4.3,52,0.00,,,0.00,VWS V14.01,2013-09-26 19:39:00,
2013-09-26 14:44:00,76.5,57.0,30.00,NNE,22,1.6,5.8,51,0.00,,,0.00,VWS V14.01,2013-09-26 19:44:00,
2013-09-26 14:49:00,76.8,57.3,30.00,SW,225,2.0,4.0,51,0.00,,,0.00,VWS V14.01,2013-09-26 19:49:00,
2013-09-26 14:54:00,76.6,56.6,30.00,ENE,68,2.0,7.4,50,0.00,,,0.00,VWS V14.01,2013-09-26 19:54:00,
2013-09-26 15:04:00,76.8,57.3,30.00,East,90,2.2,6.5,51,0.00,,,0.00,VWS V14.01,2013-09-26 20:04:00,
2013-09-26 15:09:00,77.2,56.6,30.00,NNE,22,4.0,7.2,49,0.00,,,0.00,VWS V14.01,2013-09-26 20:09:00,
2013-09-26 15:14:00,77.5,57.5,30.00,ENE,68,2.5,4.0,50,0.00,,,0.00,VWS V14.01,2013-09-26 20:14:00,
2013-09-26 15:24:00,77.2,56.6,30.00,ENE,68,5.8,8.7,49,0.00,,,0.00,VWS V14.01,2013-09-26 20:24:00,
2013-09-26 15:29:00,77.4,56.7,30.00,NE,45,2.5,5.8,49,0.00,,,0.00,VWS V14.01,2013-09-26 20:29:00,
2013-09-26 15:34:00,77.4,56.7,29.97,East,90,1.6,10.3,49,0.00,,,0.00,VWS V14.01,2013-09-26 20:34:00,
2013-09-26 15:40:00,77.7,57.6,29.97,ESE,112,1.6,6.5,50,0.00,,,0.00,VWS V14.01,2013-09-26 20:40:00,
2013-09-26 15:49:00,77.9,57.2,29.97,WNW,292,2.2,7.2,49,0.00,,,0.00,VWS V14.01,2013-09-26 20:49:00,
2013-09-26 15:54:00,77.7,56.5,29.97,SE,135,3.4,6.5,48,0.00,,,0.00,VWS V14.01,2013-09-26 20:54:00,
2013-09-26 15:59:00,77.9,57.2,29.97,NNW,338,1.3,4.9,49,0.00,,,0.00,VWS V14.01,2013-09-26 20:59:00,
2013-09-26 16:04:00,78.1,57.4,30.00,NE,45,3.4,10.1,49,0.00,,,0.00,VWS V14.01,2013-09-26 21:04:00,
2013-09-26 16:09:00,78.1,57.4,30.00,ENE,68,1.3,3.4,49,0.00,,,0.00,VWS V14.01,2013-09-26 21:09:00,
2013-09-26 16:14:00,78.1,56.8,30.00,NE,45,5.4,5.8,48,0.00,,,0.00,VWS V14.01,2013-09-26 21:14:00,
2013-09-26 16:19:00,78.1,57.4,29.97,ESE,112,7.4,7.4,49,0.00,,,0.00,VWS V14.01,2013-09-26 21:19:00,
2013-09-26 16:24:00,78.1,56.8,29.97,NNW,338,1.1,7.4,48,0.00,,,0.00,VWS V14.01,2013-09-26 21:24:00,
2013-09-26 16:29:00,78.1,56.8,29.97,NNE,22,2.2,6.0,48,0.00,,,0.00,VWS V14.01,2013-09-26 21:29:00,
2013-09-26 16:39:00,77.9,56.7,30.00,East,90,4.0,8.1,48,0.00,,,0.00,VWS V14.01,2013-09-26 21:39:00,
2013-09-26 16:44:00,77.9,57.2,30.00,WSW,248,0.0,4.0,49,0.00,,,0.00,VWS V14.01,2013-09-26 21:44:00,
2013-09-26 16:49:00,77.9,57.2,30.00,SW,225,1.1,3.8,49,0.00,,,0.00,VWS V14.01,2013-09-26 21:49:00,
2013-09-26 16:54:00,77.9,57.2,30.00,SSE,158,2.0,6.5,49,0.00,,,0.00,VWS V14.01,2013-09-26 21:54:00,
2013-09-26 17:04:00,77.4,56.7,30.00,East,90,1.1,10.3,49,0.00,,,0.00,VWS V14.01,2013-09-26 22:04:00,
2013-09-26 17:09:00,77.4,56.7,30.00,SSE,158,3.8,6.0,49,0.00,,,0.00,VWS V14.01,2013-09-26 22:09:00,
2013-09-26 17:19:00,77.2,56.6,30.00,NE,45,3.4,4.5,49,0.00,,,0.00,VWS V14.01,2013-09-26 22:19:00,
2013-09-26 17:29:00,76.3,56.3,30.00,NE,45,6.5,6.5,50,0.00,,,0.00,VWS V14.01,2013-09-26 22:29:00,
2013-09-26 17:39:00,75.2,56.4,30.00,NNE,22,2.0,6.3,52,0.00,,,0.00,VWS V14.01,2013-09-26 22:39:00,
2013-09-26 17:44:00,74.8,56.0,30.00,NE,45,1.3,6.5,52,0.00,,,0.00,VWS V14.01,2013-09-26 22:44:00,
2013-09-26 17:50:00,74.7,56.4,30.00,NE,45,2.7,4.3,53,0.00,,,0.00,VWS V14.01,2013-09-26 22:50:00,
2013-09-26 17:59:00,74.1,56.9,30.00,NE,45,1.3,3.6,55,0.00,,,0.00,VWS V14.01,2013-09-26 22:59:00,
2013-09-26 18:04:00,73.9,56.8,30.00,East,90,1.6,4.3,55,0.00,,,0.00,VWS V14.01,2013-09-26 23:04:00,
2013-09-26 18:09:00,73.6,56.4,30.00,ENE,68,3.1,8.5,55,0.00,,,0.00,VWS V14.01,2013-09-26 23:09:00,
2013-09-26 18:14:00,73.6,56.4,30.00,East,90,0.0,5.4,55,0.00,,,0.00,VWS V14.01,2013-09-26 23:14:00,
2013-09-26 18:19:00,73.2,56.6,30.00,NE,45,2.5,3.8,56,0.00,,,0.00,VWS V14.01,2013-09-26 23:19:00,
2013-09-26 18:24:00,73.0,56.9,30.00,NE,45,0.0,4.7,57,0.00,,,0.00,VWS V14.01,2013-09-26 23:24:00,
2013-09-26 18:29:00,73.0,56.9,30.00,East,90,2.0,4.3,57,0.00,,,0.00,VWS V14.01,2013-09-26 23:29:00,
2013-09-26 18:39:00,72.1,57.0,30.00,ENE,68,2.2,3.6,59,0.00,,,0.00,VWS V14.01,2013-09-26 23:39:00,
2013-09-26 18:44:00,72.0,56.9,30.00,ENE,68,0.0,4.0,59,0.00,,,0.00,VWS V14.01,2013-09-26 23:44:00,
2013-09-26 18:49:00,71.4,56.8,30.00,ENE,68,0.0,2.9,60,0.00,,,0.00,VWS V14.01,2013-09-26 23:49:00,
2013-09-26 18:54:00,70.9,57.2,30.00,NE,45,2.2,2.5,62,0.00,,,0.00,VWS V14.01,2013-09-26 23:54:00,
2013-09-26 18:59:00,70.5,57.3,30.00,East,90,0.0,3.8,63,0.00,,,0.00,VWS V14.01,2013-09-26 23:59:00,
2013-09-26 19:14:00,69.6,57.8,30.00,ENE,68,2.5,2.9,66,0.00,,,0.00,VWS V14.01,2013-09-27 00:14:00,
2013-09-26 19:19:00,69.4,57.6,30.00,NNE,22,0.0,4.9,66,0.00,,,0.00,VWS V14.01,2013-09-27 00:19:00,
2013-09-26 19:24:00,69.1,57.3,30.00,NNE,22,1.6,2.9,66,0.00,,,0.00,VWS V14.01,2013-09-27 00:24:00,
2013-09-26 19:29:00,68.9,57.5,30.00,ESE,112,1.6,4.3,67,0.00,,,0.00,VWS V14.01,2013-09-27 00:29:00,
2013-09-26 19:34:00,68.9,57.5,30.00,NE,45,2.0,3.8,67,0.00,,,0.00,VWS V14.01,2013-09-27 00:34:00,
2013-09-26 19:39:00,68.7,57.3,30.00,NNE,22,1.3,4.3,67,0.00,,,0.00,VWS V14.01,2013-09-27 00:39:00,
2013-09-26 19:49:00,68.5,57.2,30.00,ENE,68,2.7,3.4,67,0.00,,,0.00,VWS V14.01,2013-09-27 00:49:00,
2013-09-26 19:54:00,68.4,57.0,30.00,NE,45,1.1,5.4,67,0.00,,,0.00,VWS V14.01,2013-09-27 00:54:00,
2013-09-26 19:59:00,68.2,56.8,30.00,ENE,68,2.5,2.5,67,0.00,,,0.00,VWS V14.01,2013-09-27 00:59:00,
2013-09-26 20:04:00,68.0,56.7,30.00,NE,45,3.4,3.4,67,0.00,,,0.00,VWS V14.01,2013-09-27 01:04:00,
2013-09-26 20:09:00,68.0,56.7,30.00,NNE,22,1.1,3.4,67,0.00,,,0.00,VWS V14.01,2013-09-27 01:09:00,
2013-09-26 20:14:00,67.8,56.9,30.00,ENE,68,2.7,3.1,68,0.00,,,0.00,VWS V14.01,2013-09-27 01:14:00,
2013-09-26 20:19:00,67.6,56.7,30.00,SSE,158,1.6,3.6,68,0.00,,,0.00,VWS V14.01,2013-09-27 01:19:00,
2013-09-26 20:24:00,67.3,56.8,30.00,ENE,68,2.5,2.5,69,0.00,,,0.00,VWS V14.01,2013-09-27 01:24:00,
2013-09-26 20:30:00,67.3,56.8,30.00,ENE,68,3.1,4.0,69,0.00,,,0.00,VWS V14.01,2013-09-27 01:30:00,
2013-09-26 20:39:00,67.3,56.8,30.00,NE,45,4.7,4.7,69,0.00,,,0.00,VWS V14.01,2013-09-27 01:39:00,
2013-09-26 20:44:00,67.3,56.4,30.00,NE,45,2.5,4.7,68,0.00,,,0.00,VWS V14.01,2013-09-27 01:44:00,
2013-09-26 20:49:00,67.1,56.2,30.00,NE,45,1.1,3.6,68,0.00,,,0.00,VWS V14.01,2013-09-27 01:49:00,
2013-09-26 20:59:00,66.9,56.0,30.00,East,90,5.4,5.8,68,0.00,,,0.00,VWS V14.01,2013-09-27 01:59:00,
2013-09-26 21:04:00,67.1,56.2,30.00,NE,45,4.7,5.4,68,0.00,,,0.00,VWS V14.01,2013-09-27 02:04:00,
2013-09-26 21:14:00,66.9,55.6,30.00,SSE,158,2.9,5.6,67,0.00,,,0.00,VWS V14.01,2013-09-27 02:14:00,
2013-09-26 21:19:00,66.9,55.6,30.00,NE,45,1.6,4.3,67,0.00,,,0.00,VWS V14.01,2013-09-27 02:19:00,
2013-09-26 21:24:00,66.9,55.6,30.00,SE,135,3.4,4.7,67,0.00,,,0.00,VWS V14.01,2013-09-27 02:24:00,
2013-09-26 21:34:00,66.9,55.2,30.00,NNE,22,2.9,4.3,66,0.00,,,0.00,VWS V14.01,2013-09-27 02:34:00,
2013-09-26 21:44:00,66.7,54.6,30.00,ENE,68,3.6,3.6,65,0.00,,,0.00,VWS V14.01,2013-09-27 02:44:00,
2013-09-26 21:49:00,66.7,54.6,30.00,ENE,68,4.0,4.3,65,0.00,,,0.00,VWS V14.01,2013-09-27 02:49:00,
2013-09-26 21:54:00,66.7,54.6,30.00,East,90,0.9,4.5,65,0.00,,,0.00,VWS V14.01,2013-09-27 02:54:00,
2013-09-26 21:59:00,66.7,54.6,30.00,North,0,1.3,3.4,65,0.00,,,0.00,VWS V14.01,2013-09-27 02:59:00,
2013-09-26 22:09:00,66.6,54.4,30.00,ENE,68,1.6,4.3,65,0.00,,,0.00,VWS V14.01,2013-09-27 03:09:00,
2013-09-26 22:14:00,66.6,54.0,30.00,North,0,2.5,9.4,64,0.00,,,0.00,VWS V14.01,2013-09-27 03:14:00,
2013-09-26 22:19:00,66.7,54.2,29.97,West,270,1.3,3.6,64,0.00,,,0.00,VWS V14.01,2013-09-27 03:19:00,
2013-09-26 22:24:00,66.6,54.0,29.97,SE,135,0.0,3.6,64,0.00,,,0.00,VWS V14.01,2013-09-27 03:24:00,
2013-09-26 22:34:00,66.4,53.8,30.00,NE,45,1.1,5.4,64,0.00,,,0.00,VWS V14.01,2013-09-27 03:34:00,
2013-09-26 22:44:00,66.4,53.8,30.00,ENE,68,1.6,2.5,64,0.00,,,0.00,VWS V14.01,2013-09-27 03:44:00,
2013-09-26 22:49:00,66.2,54.1,30.00,NE,45,1.6,3.1,65,0.00,,,0.00,VWS V14.01,2013-09-27 03:49:00,
2013-09-26 22:54:00,66.0,53.9,30.00,SE,135,2.7,5.4,65,0.00,,,0.00,VWS V14.01,2013-09-27 03:54:00,
2013-09-26 22:59:00,66.0,53.9,30.00,WSW,248,3.1,5.8,65,0.00,,,0.00,VWS V14.01,2013-09-27 03:59:00,
2013-09-26 23:04:00,65.8,54.2,30.00,NNE,22,0.0,3.4,66,0.00,,,0.00,VWS V14.01,2013-09-27 04:04:00,
2013-09-26 23:09:00,65.8,54.2,29.97,East,90,1.6,2.7,66,0.00,,,0.00,VWS V14.01,2013-09-27 04:09:00,
2013-09-26 23:19:00,65.7,54.0,30.00,NW,315,0.9,3.1,66,0.00,,,0.00,VWS V14.01,2013-09-27 04:19:00,
2013-09-26 23:24:00,65.7,54.0,30.00,ENE,68,1.3,2.2,66,0.00,,,0.00,VWS V14.01,2013-09-27 04:24:00,
2013-09-26 23:29:00,65.5,53.8,30.00,NE,45,1.6,2.0,66,0.00,,,0.00,VWS V14.01,2013-09-27 04:29:00,
2013-09-26 23:34:00,65.5,53.8,30.00,West,270,2.5,2.7,66,0.00,,,0.00,VWS V14.01,2013-09-27 04:34:00,
2013-09-26 23:39:00,65.3,54.1,30.00,South,180,2.9,2.9,67,0.00,,,0.00,VWS V14.01,2013-09-27 04:39:00,
2013-09-26 23:44:00,65.3,54.1,30.00,WSW,248,3.4,3.4,67,0.00,,,0.00,VWS V14.01,2013-09-27 04:44:00,
2013-09-26 23:49:00,65.1,53.9,30.00,West,270,3.8,4.3,67,0.00,,,0.00,VWS V14.01,2013-09-27 04:49:00,
2013-09-26 23:54:00,65.1,53.9,30.00,ENE,68,2.2,3.8,67,0.00,,,0.00,VWS V14.01,2013-09-27 04:54:00,
2013-09-26 23:59:00,65.1,53.9,30.00,NNE,22,3.1,5.8,67,0.00,,,0.00,VWS V14.01,2013-09-27 04:59:00,